sensor_id;sensor_type;location;lat;lon;timestamp;P1;durP1;ratioP1;P2;durP2;ratioP2
62056;SDS011;48016;50.284;18.860;2023-03-05T00:01:54;20.60;;;8.10;;
62056;SDS011;48016;50.284;18.860;2023-03-05T00:04:21;16.10;;;8.20;;
62056;SDS011;48016;50.284;18.860;2023-03-05T00:09:15;20.30;;;8.00;;
62056;SDS011;48016;50.284;18.860;2023-03-05T00:11:42;16.10;;;7.50;;
62056;SDS011;48016;50.284;18.860;2023-03-05T00:14:09;20.60;;;8.60;;
62056;SDS011;48016;50.284;18.860;2023-03-05T00:16:37;17.60;;;7.90;;
62056;SDS011;48016;50.284;18.860;2023-03-05T00:19:03;14.90;;;6.90;;
62056;SDS011;48016;50.284;18.860;2023-03-05T00:21:32;15.70;;;6.80;;
62056;SDS011;48016;50.284;18.860;2023-03-05T00:24:04;12.10;;;5.80;;
62056;SDS011;48016;50.284;18.860;2023-03-05T00:26:34;12.00;;;6.20;;
62056;SDS011;48016;50.284;18.860;2023-03-05T00:29:04;11.20;;;5.80;;
62056;SDS011;48016;50.284;18.860;2023-03-05T00:31:33;14.50;;;6.40;;
62056;SDS011;48016;50.284;18.860;2023-03-05T00:34:03;13.30;;;5.60;;
62056;SDS011;48016;50.284;18.860;2023-03-05T00:36:32;13.50;;;6.10;;
62056;SDS011;48016;50.284;18.860;2023-03-05T00:41:26;12.00;;;5.90;;
62056;SDS011;48016;50.284;18.860;2023-03-05T00:43:53;17.10;;;6.00;;
62056;SDS011;48016;50.284;18.860;2023-03-05T00:46:20;13.20;;;6.10;;
62056;SDS011;48016;50.284;18.860;2023-03-05T00:48:48;14.20;;;6.70;;
62056;SDS011;48016;50.284;18.860;2023-03-05T00:51:15;17.20;;;7.10;;
62056;SDS011;48016;50.284;18.860;2023-03-05T00:53:41;15.70;;;6.80;;
62056;SDS011;48016;50.284;18.860;2023-03-05T00:56:08;16.20;;;7.20;;
62056;SDS011;48016;50.284;18.860;2023-03-05T00:58:34;13.10;;;6.70;;
62056;SDS011;48016;50.284;18.860;2023-03-05T01:01:01;17.70;;;7.00;;
62056;SDS011;48016;50.284;18.860;2023-03-05T01:03:29;14.00;;;6.90;;
62056;SDS011;48016;50.284;18.860;2023-03-05T01:05:57;13.40;;;6.80;;
62056;SDS011;48016;50.284;18.860;2023-03-05T01:08:24;14.00;;;6.60;;
62056;SDS011;48016;50.284;18.860;2023-03-05T01:10:51;16.10;;;6.80;;
62056;SDS011;48016;50.284;18.860;2023-03-05T01:13:18;13.70;;;6.90;;
62056;SDS011;48016;50.284;18.860;2023-03-05T01:15:45;16.90;;;7.10;;
62056;SDS011;48016;50.284;18.860;2023-03-05T01:18:13;17.40;;;7.90;;
62056;SDS011;48016;50.284;18.860;2023-03-05T01:20:40;16.90;;;7.70;;
62056;SDS011;48016;50.284;18.860;2023-03-05T01:23:07;20.90;;;7.50;;
62056;SDS011;48016;50.284;18.860;2023-03-05T01:25:34;16.10;;;6.90;;
62056;SDS011;48016;50.284;18.860;2023-03-05T01:28:01;19.60;;;7.90;;
62056;SDS011;48016;50.284;18.860;2023-03-05T01:30:28;15.60;;;7.80;;
62056;SDS011;48016;50.284;18.860;2023-03-05T01:32:55;17.00;;;6.70;;
62056;SDS011;48016;50.284;18.860;2023-03-05T01:35:22;18.20;;;8.00;;
62056;SDS011;48016;50.284;18.860;2023-03-05T01:37:51;15.70;;;7.50;;
62056;SDS011;48016;50.284;18.860;2023-03-05T01:42:47;15.20;;;7.10;;
62056;SDS011;48016;50.284;18.860;2023-03-05T01:45:16;17.50;;;8.40;;
62056;SDS011;48016;50.284;18.860;2023-03-05T01:47:44;17.40;;;7.80;;
62056;SDS011;48016;50.284;18.860;2023-03-05T01:50:15;15.50;;;7.80;;
62056;SDS011;48016;50.284;18.860;2023-03-05T01:52:47;16.40;;;9.20;;
62056;SDS011;48016;50.284;18.860;2023-03-05T01:55:22;16.60;;;7.70;;
62056;SDS011;48016;50.284;18.860;2023-03-05T01:58:03;13.90;;;7.30;;
62056;SDS011;48016;50.284;18.860;2023-03-05T02:00:34;16.40;;;7.80;;
62056;SDS011;48016;50.284;18.860;2023-03-05T02:03:06;13.00;;;7.20;;
62056;SDS011;48016;50.284;18.860;2023-03-05T02:05:35;16.80;;;7.20;;
62056;SDS011;48016;50.284;18.860;2023-03-05T02:08:07;16.20;;;7.90;;
62056;SDS011;48016;50.284;18.860;2023-03-05T02:10:36;17.60;;;8.10;;
62056;SDS011;48016;50.284;18.860;2023-03-05T02:13:06;14.40;;;7.10;;
62056;SDS011;48016;50.284;18.860;2023-03-05T02:15:35;16.70;;;7.40;;
62056;SDS011;48016;50.284;18.860;2023-03-05T02:18:03;17.60;;;8.30;;
62056;SDS011;48016;50.284;18.860;2023-03-05T02:20:41;17.30;;;8.00;;
62056;SDS011;48016;50.284;18.860;2023-03-05T02:23:10;16.20;;;7.00;;
62056;SDS011;48016;50.284;18.860;2023-03-05T02:25:36;15.70;;;7.10;;
62056;SDS011;48016;50.284;18.860;2023-03-05T02:28:17;14.80;;;7.20;;
62056;SDS011;48016;50.284;18.860;2023-03-05T02:30:49;12.90;;;6.50;;
62056;SDS011;48016;50.284;18.860;2023-03-05T02:33:17;16.70;;;7.40;;
62056;SDS011;48016;50.284;18.860;2023-03-05T02:35:45;14.20;;;7.20;;
62056;SDS011;48016;50.284;18.860;2023-03-05T02:38:13;16.00;;;7.30;;
62056;SDS011;48016;50.284;18.860;2023-03-05T02:40:42;15.90;;;7.40;;
62056;SDS011;48016;50.284;18.860;2023-03-05T02:43:09;17.70;;;7.50;;
62056;SDS011;48016;50.284;18.860;2023-03-05T02:45:37;13.40;;;6.90;;
62056;SDS011;48016;50.284;18.860;2023-03-05T02:48:04;13.00;;;7.00;;
62056;SDS011;48016;50.284;18.860;2023-03-05T02:50:31;18.00;;;7.10;;
62056;SDS011;48016;50.284;18.860;2023-03-05T02:52:59;15.20;;;7.10;;
62056;SDS011;48016;50.284;18.860;2023-03-05T02:55:26;16.60;;;6.90;;
62056;SDS011;48016;50.284;18.860;2023-03-05T02:57:52;14.00;;;6.70;;
62056;SDS011;48016;50.284;18.860;2023-03-05T03:00:19;14.60;;;6.60;;
62056;SDS011;48016;50.284;18.860;2023-03-05T03:02:46;17.20;;;6.20;;
62056;SDS011;48016;50.284;18.860;2023-03-05T03:05:13;14.00;;;7.00;;
62056;SDS011;48016;50.284;18.860;2023-03-05T03:07:39;15.70;;;7.10;;
62056;SDS011;48016;50.284;18.860;2023-03-05T03:10:06;15.30;;;6.80;;
62056;SDS011;48016;50.284;18.860;2023-03-05T03:12:42;14.40;;;6.60;;
62056;SDS011;48016;50.284;18.860;2023-03-05T03:15:10;13.20;;;6.10;;
62056;SDS011;48016;50.284;18.860;2023-03-05T03:17:38;13.80;;;6.70;;
62056;SDS011;48016;50.284;18.860;2023-03-05T03:20:06;14.40;;;8.10;;
62056;SDS011;48016;50.284;18.860;2023-03-05T03:22:35;21.50;;;8.10;;
62056;SDS011;48016;50.284;18.860;2023-03-05T03:25:02;20.30;;;7.80;;
62056;SDS011;48016;50.284;18.860;2023-03-05T03:27:29;20.40;;;8.90;;
62056;SDS011;48016;50.284;18.860;2023-03-05T03:29:56;19.70;;;9.00;;
62056;SDS011;48016;50.284;18.860;2023-03-05T03:32:28;24.50;;;10.10;;
62056;SDS011;48016;50.284;18.860;2023-03-05T03:34:54;25.00;;;10.30;;
62056;SDS011;48016;50.284;18.860;2023-03-05T03:37:21;26.70;;;11.20;;
62056;SDS011;48016;50.284;18.860;2023-03-05T03:39:48;27.30;;;11.00;;
62056;SDS011;48016;50.284;18.860;2023-03-05T03:42:18;22.50;;;11.40;;
62056;SDS011;48016;50.284;18.860;2023-03-05T03:44:46;26.10;;;11.00;;
62056;SDS011;48016;50.284;18.860;2023-03-05T03:47:13;25.60;;;11.20;;
62056;SDS011;48016;50.284;18.860;2023-03-05T03:49:40;23.20;;;12.00;;
62056;SDS011;48016;50.284;18.860;2023-03-05T03:52:07;28.00;;;12.50;;
62056;SDS011;48016;50.284;18.860;2023-03-05T03:54:34;25.20;;;11.50;;
62056;SDS011;48016;50.284;18.860;2023-03-05T03:57:00;22.80;;;11.10;;
62056;SDS011;48016;50.284;18.860;2023-03-05T03:59:27;24.40;;;10.70;;
62056;SDS011;48016;50.284;18.860;2023-03-05T04:01:54;24.40;;;10.20;;
62056;SDS011;48016;50.284;18.860;2023-03-05T04:04:20;18.60;;;9.60;;
62056;SDS011;48016;50.284;18.860;2023-03-05T04:06:47;19.10;;;8.60;;
62056;SDS011;48016;50.284;18.860;2023-03-05T04:09:14;15.60;;;7.30;;
62056;SDS011;48016;50.284;18.860;2023-03-05T04:11:40;17.80;;;8.10;;
62056;SDS011;48016;50.284;18.860;2023-03-05T04:14:07;20.10;;;7.90;;
62056;SDS011;48016;50.284;18.860;2023-03-05T04:16:33;19.10;;;8.80;;
62056;SDS011;48016;50.284;18.860;2023-03-05T04:19:00;17.40;;;9.70;;
62056;SDS011;48016;50.284;18.860;2023-03-05T04:21:27;17.00;;;9.50;;
62056;SDS011;48016;50.284;18.860;2023-03-05T04:23:54;23.60;;;10.10;;
62056;SDS011;48016;50.284;18.860;2023-03-05T04:26:21;24.20;;;11.60;;
62056;SDS011;48016;50.284;18.860;2023-03-05T04:28:48;21.50;;;10.00;;
62056;SDS011;48016;50.284;18.860;2023-03-05T04:31:14;23.00;;;10.20;;
62056;SDS011;48016;50.284;18.860;2023-03-05T04:36:08;20.00;;;9.40;;
62056;SDS011;48016;50.284;18.860;2023-03-05T04:38:35;20.40;;;9.70;;
62056;SDS011;48016;50.284;18.860;2023-03-05T04:41:02;19.60;;;9.60;;
62056;SDS011;48016;50.284;18.860;2023-03-05T04:43:28;18.80;;;10.40;;
62056;SDS011;48016;50.284;18.860;2023-03-05T04:45:55;20.50;;;10.60;;
62056;SDS011;48016;50.284;18.860;2023-03-05T04:48:21;20.40;;;10.20;;
62056;SDS011;48016;50.284;18.860;2023-03-05T04:50:48;19.30;;;9.10;;
62056;SDS011;48016;50.284;18.860;2023-03-05T04:53:15;18.40;;;9.10;;
62056;SDS011;48016;50.284;18.860;2023-03-05T04:55:42;19.90;;;9.90;;
62056;SDS011;48016;50.284;18.860;2023-03-05T04:58:09;19.10;;;9.10;;
62056;SDS011;48016;50.284;18.860;2023-03-05T05:00:35;16.70;;;8.90;;
62056;SDS011;48016;50.284;18.860;2023-03-05T05:03:02;18.60;;;9.80;;
62056;SDS011;48016;50.284;18.860;2023-03-05T05:05:29;18.30;;;8.90;;
62056;SDS011;48016;50.284;18.860;2023-03-05T05:07:56;17.30;;;8.30;;
62056;SDS011;48016;50.284;18.860;2023-03-05T05:10:24;15.70;;;8.30;;
62056;SDS011;48016;50.284;18.860;2023-03-05T05:12:51;15.10;;;7.60;;
62056;SDS011;48016;50.284;18.860;2023-03-05T05:15:18;18.70;;;8.60;;
62056;SDS011;48016;50.284;18.860;2023-03-05T05:17:44;18.40;;;8.90;;
62056;SDS011;48016;50.284;18.860;2023-03-05T05:20:12;15.30;;;8.40;;
62056;SDS011;48016;50.284;18.860;2023-03-05T05:22:40;16.40;;;8.00;;
62056;SDS011;48016;50.284;18.860;2023-03-05T05:25:07;16.50;;;6.90;;
62056;SDS011;48016;50.284;18.860;2023-03-05T05:27:34;11.50;;;5.40;;
62056;SDS011;48016;50.284;18.860;2023-03-05T05:30:01;8.60;;;4.10;;
62056;SDS011;48016;50.284;18.860;2023-03-05T05:32:29;7.30;;;3.90;;
62056;SDS011;48016;50.284;18.860;2023-03-05T05:34:56;6.80;;;3.40;;
62056;SDS011;48016;50.284;18.860;2023-03-05T05:37:24;10.10;;;3.20;;
62056;SDS011;48016;50.284;18.860;2023-03-05T05:42:18;8.40;;;3.10;;
62056;SDS011;48016;50.284;18.860;2023-03-05T05:44:47;9.70;;;3.90;;
62056;SDS011;48016;50.284;18.860;2023-03-05T05:47:14;10.20;;;5.30;;
62056;SDS011;48016;50.284;18.860;2023-03-05T05:49:42;8.30;;;4.50;;
62056;SDS011;48016;50.284;18.860;2023-03-05T05:52:09;9.60;;;4.30;;
62056;SDS011;48016;50.284;18.860;2023-03-05T05:54:35;8.70;;;4.30;;
62056;SDS011;48016;50.284;18.860;2023-03-05T05:57:02;8.80;;;3.70;;
62056;SDS011;48016;50.284;18.860;2023-03-05T05:59:29;7.90;;;3.70;;
62056;SDS011;48016;50.284;18.860;2023-03-05T06:01:55;10.60;;;4.30;;
62056;SDS011;48016;50.284;18.860;2023-03-05T06:04:22;10.20;;;4.40;;
62056;SDS011;48016;50.284;18.860;2023-03-05T06:06:49;9.70;;;3.70;;
62056;SDS011;48016;50.284;18.860;2023-03-05T06:09:16;10.60;;;3.60;;
62056;SDS011;48016;50.284;18.860;2023-03-05T06:11:43;9.20;;;3.90;;
62056;SDS011;48016;50.284;18.860;2023-03-05T06:14:10;9.90;;;4.70;;
62056;SDS011;48016;50.284;18.860;2023-03-05T06:16:38;11.40;;;4.70;;
62056;SDS011;48016;50.284;18.860;2023-03-05T06:19:05;9.80;;;4.80;;
62056;SDS011;48016;50.284;18.860;2023-03-05T06:21:34;13.30;;;5.60;;
62056;SDS011;48016;50.284;18.860;2023-03-05T06:24:01;11.20;;;5.30;;
62056;SDS011;48016;50.284;18.860;2023-03-05T06:26:28;12.40;;;4.70;;
62056;SDS011;48016;50.284;18.860;2023-03-05T06:28:55;11.90;;;5.60;;
62056;SDS011;48016;50.284;18.860;2023-03-05T06:31:23;13.50;;;5.40;;
62056;SDS011;48016;50.284;18.860;2023-03-05T06:33:52;12.50;;;6.40;;
62056;SDS011;48016;50.284;18.860;2023-03-05T06:36:22;11.70;;;6.30;;
62056;SDS011;48016;50.284;18.860;2023-03-05T06:38:50;15.80;;;7.30;;
62056;SDS011;48016;50.284;18.860;2023-03-05T06:41:20;13.50;;;6.50;;
62056;SDS011;48016;50.284;18.860;2023-03-05T06:43:48;15.50;;;6.60;;
62056;SDS011;48016;50.284;18.860;2023-03-05T06:46:17;15.50;;;7.30;;
62056;SDS011;48016;50.284;18.860;2023-03-05T06:48:45;13.10;;;7.20;;
62056;SDS011;48016;50.284;18.860;2023-03-05T06:53:44;16.10;;;7.30;;
62056;SDS011;48016;50.284;18.860;2023-03-05T06:56:11;17.10;;;8.10;;
62056;SDS011;48016;50.284;18.860;2023-03-05T07:01:06;23.10;;;11.90;;
62056;SDS011;48016;50.284;18.860;2023-03-05T07:03:33;20.50;;;13.30;;
62056;SDS011;48016;50.284;18.860;2023-03-05T07:06:02;28.80;;;16.40;;
62056;SDS011;48016;50.284;18.860;2023-03-05T07:08:32;31.40;;;17.80;;
62056;SDS011;48016;50.284;18.860;2023-03-05T07:10:59;31.60;;;17.70;;
62056;SDS011;48016;50.284;18.860;2023-03-05T07:13:26;34.20;;;20.50;;
62056;SDS011;48016;50.284;18.860;2023-03-05T07:15:54;46.30;;;26.10;;
62056;SDS011;48016;50.284;18.860;2023-03-05T07:18:20;42.70;;;24.80;;
62056;SDS011;48016;50.284;18.860;2023-03-05T07:20:47;31.30;;;17.00;;
62056;SDS011;48016;50.284;18.860;2023-03-05T07:23:14;27.80;;;15.60;;
62056;SDS011;48016;50.284;18.860;2023-03-05T07:25:40;29.80;;;15.70;;
62056;SDS011;48016;50.284;18.860;2023-03-05T07:28:07;30.00;;;15.40;;
62056;SDS011;48016;50.284;18.860;2023-03-05T07:30:35;27.10;;;14.70;;
62056;SDS011;48016;50.284;18.860;2023-03-05T07:33:02;31.70;;;15.10;;
62056;SDS011;48016;50.284;18.860;2023-03-05T07:35:29;32.70;;;16.20;;
62056;SDS011;48016;50.284;18.860;2023-03-05T07:37:55;30.80;;;15.70;;
62056;SDS011;48016;50.284;18.860;2023-03-05T07:40:22;29.50;;;16.10;;
62056;SDS011;48016;50.284;18.860;2023-03-05T07:42:49;32.30;;;15.70;;
62056;SDS011;48016;50.284;18.860;2023-03-05T07:45:15;30.80;;;15.60;;
62056;SDS011;48016;50.284;18.860;2023-03-05T07:47:42;23.50;;;12.20;;
62056;SDS011;48016;50.284;18.860;2023-03-05T07:50:10;20.80;;;10.00;;
62056;SDS011;48016;50.284;18.860;2023-03-05T07:55:03;27.90;;;12.80;;
62056;SDS011;48016;50.284;18.860;2023-03-05T07:57:30;27.20;;;13.00;;
62056;SDS011;48016;50.284;18.860;2023-03-05T07:59:57;21.20;;;11.90;;
62056;SDS011;48016;50.284;18.860;2023-03-05T08:02:23;22.90;;;12.00;;
62056;SDS011;48016;50.284;18.860;2023-03-05T08:04:50;21.20;;;11.90;;
62056;SDS011;48016;50.284;18.860;2023-03-05T08:07:16;22.20;;;12.20;;
62056;SDS011;48016;50.284;18.860;2023-03-05T08:09:43;25.30;;;14.10;;
62056;SDS011;48016;50.284;18.860;2023-03-05T08:12:10;27.70;;;17.60;;
62056;SDS011;48016;50.284;18.860;2023-03-05T08:14:36;30.50;;;19.90;;
62056;SDS011;48016;50.284;18.860;2023-03-05T08:17:03;36.80;;;23.70;;
62056;SDS011;48016;50.284;18.860;2023-03-05T08:21:58;42.70;;;22.60;;
62056;SDS011;48016;50.284;18.860;2023-03-05T08:24:25;41.80;;;21.80;;
62056;SDS011;48016;50.284;18.860;2023-03-05T08:26:55;35.00;;;21.50;;
62056;SDS011;48016;50.284;18.860;2023-03-05T08:29:23;33.60;;;19.70;;
62056;SDS011;48016;50.284;18.860;2023-03-05T08:31:51;39.90;;;21.60;;
62056;SDS011;48016;50.284;18.860;2023-03-05T08:34:21;39.40;;;21.70;;
62056;SDS011;48016;50.284;18.860;2023-03-05T08:36:48;39.90;;;23.30;;
62056;SDS011;48016;50.284;18.860;2023-03-05T08:39:15;36.10;;;20.80;;
62056;SDS011;48016;50.284;18.860;2023-03-05T08:41:41;35.10;;;19.60;;
62056;SDS011;48016;50.284;18.860;2023-03-05T08:44:08;28.20;;;17.40;;
62056;SDS011;48016;50.284;18.860;2023-03-05T08:46:35;31.60;;;20.90;;
62056;SDS011;48016;50.284;18.860;2023-03-05T08:49:03;35.40;;;19.90;;
62056;SDS011;48016;50.284;18.860;2023-03-05T08:51:32;36.00;;;20.40;;
62056;SDS011;48016;50.284;18.860;2023-03-05T08:54:01;40.50;;;22.70;;
62056;SDS011;48016;50.284;18.860;2023-03-05T08:56:32;35.50;;;22.40;;
62056;SDS011;48016;50.284;18.860;2023-03-05T08:59:01;31.70;;;19.60;;
62056;SDS011;48016;50.284;18.860;2023-03-05T09:01:28;38.30;;;22.20;;
62056;SDS011;48016;50.284;18.860;2023-03-05T09:03:57;37.10;;;23.90;;
62056;SDS011;48016;50.284;18.860;2023-03-05T09:06:25;38.60;;;23.50;;
62056;SDS011;48016;50.284;18.860;2023-03-05T09:08:52;34.20;;;21.00;;
62056;SDS011;48016;50.284;18.860;2023-03-05T09:11:19;35.50;;;19.90;;
62056;SDS011;48016;50.284;18.860;2023-03-05T09:13:46;34.80;;;20.60;;
62056;SDS011;48016;50.284;18.860;2023-03-05T09:16:13;35.70;;;20.50;;
62056;SDS011;48016;50.284;18.860;2023-03-05T09:18:42;33.60;;;18.10;;
62056;SDS011;48016;50.284;18.860;2023-03-05T09:21:10;35.30;;;18.70;;
62056;SDS011;48016;50.284;18.860;2023-03-05T09:23:40;35.20;;;20.10;;
62056;SDS011;48016;50.284;18.860;2023-03-05T09:26:07;37.60;;;23.10;;
62056;SDS011;48016;50.284;18.860;2023-03-05T09:28:37;36.60;;;19.40;;
62056;SDS011;48016;50.284;18.860;2023-03-05T09:31:04;32.30;;;19.80;;
62056;SDS011;48016;50.284;18.860;2023-03-05T09:33:33;32.50;;;18.90;;
62056;SDS011;48016;50.284;18.860;2023-03-05T09:38:27;33.90;;;19.80;;
62056;SDS011;48016;50.284;18.860;2023-03-05T09:40:58;36.30;;;20.20;;
62056;SDS011;48016;50.284;18.860;2023-03-05T09:49:05;23.30;;;14.00;;
62056;SDS011;48016;50.284;18.860;2023-03-05T09:51:40;24.60;;;11.70;;
62056;SDS011;48016;50.284;18.860;2023-03-05T09:54:22;20.20;;;12.70;;
62056;SDS011;48016;50.284;18.860;2023-03-05T09:56:53;24.20;;;14.20;;
62056;SDS011;48016;50.284;18.860;2023-03-05T09:59:31;22.90;;;13.80;;
62056;SDS011;48016;50.284;18.860;2023-03-05T10:02:02;25.50;;;13.70;;
62056;SDS011;48016;50.284;18.860;2023-03-05T10:04:42;22.10;;;14.10;;
62056;SDS011;48016;50.284;18.860;2023-03-05T10:07:21;23.70;;;14.70;;
62056;SDS011;48016;50.284;18.860;2023-03-05T10:10:09;21.70;;;12.90;;
62056;SDS011;48016;50.284;18.860;2023-03-05T10:15:13;21.90;;;12.10;;
62056;SDS011;48016;50.284;18.860;2023-03-05T10:20:48;24.30;;;11.80;;
62056;SDS011;48016;50.284;18.860;2023-03-05T10:29:00;21.80;;;11.20;;
62056;SDS011;48016;50.284;18.860;2023-03-05T10:31:37;19.90;;;10.70;;
62056;SDS011;48016;50.284;18.860;2023-03-05T10:36:58;15.60;;;9.70;;
62056;SDS011;48016;50.284;18.860;2023-03-05T10:39:50;16.20;;;8.50;;
62056;SDS011;48016;50.284;18.860;2023-03-05T10:42:33;15.20;;;8.50;;
62056;SDS011;48016;50.284;18.860;2023-03-05T10:51:01;16.70;;;7.60;;
62056;SDS011;48016;50.284;18.860;2023-03-05T10:53:37;16.40;;;7.30;;
62056;SDS011;48016;50.284;18.860;2023-03-05T10:56:15;16.70;;;8.50;;
62056;SDS011;48016;50.284;18.860;2023-03-05T10:58:47;15.50;;;7.20;;
62056;SDS011;48016;50.284;18.860;2023-03-05T11:06:52;11.50;;;6.10;;
62056;SDS011;48016;50.284;18.860;2023-03-05T11:09:15;19.30;;;7.10;;
62056;SDS011;48016;50.284;18.860;2023-03-05T11:11:44;15.60;;;6.00;;
62056;SDS011;48016;50.284;18.860;2023-03-05T11:14:28;11.50;;;5.70;;
62056;SDS011;48016;50.284;18.860;2023-03-05T11:16:59;11.90;;;5.90;;
62056;SDS011;48016;50.284;18.860;2023-03-05T11:19:31;14.00;;;6.40;;
62056;SDS011;48016;50.284;18.860;2023-03-05T11:22:18;15.50;;;6.60;;
62056;SDS011;48016;50.284;18.860;2023-03-05T11:25:33;14.50;;;5.90;;
62056;SDS011;48016;50.284;18.860;2023-03-05T11:27:38;12.60;;;5.50;;
62056;SDS011;48016;50.284;18.860;2023-03-05T11:30:35;13.70;;;6.20;;
62056;SDS011;48016;50.284;18.860;2023-03-05T11:33:06;12.70;;;6.00;;
62056;SDS011;48016;50.284;18.860;2023-03-05T11:35:41;13.40;;;6.40;;
62056;SDS011;48016;50.284;18.860;2023-03-05T11:38:16;12.20;;;5.50;;
62056;SDS011;48016;50.284;18.860;2023-03-05T11:40:49;12.00;;;5.50;;
62056;SDS011;48016;50.284;18.860;2023-03-05T11:43:18;12.10;;;6.40;;
62056;SDS011;48016;50.284;18.860;2023-03-05T11:45:51;12.20;;;5.70;;
62056;SDS011;48016;50.284;18.860;2023-03-05T11:48:24;10.70;;;5.30;;
62056;SDS011;48016;50.284;18.860;2023-03-05T11:50:56;12.40;;;5.80;;
62056;SDS011;48016;50.284;18.860;2023-03-05T11:53:26;15.90;;;6.00;;
62056;SDS011;48016;50.284;18.860;2023-03-05T12:01:20;11.90;;;5.80;;
62056;SDS011;48016;50.284;18.860;2023-03-05T12:03:49;13.40;;;6.00;;
62056;SDS011;48016;50.284;18.860;2023-03-05T12:09:08;10.70;;;4.20;;
62056;SDS011;48016;50.284;18.860;2023-03-05T12:11:42;15.60;;;5.30;;
62056;SDS011;48016;50.284;18.860;2023-03-05T12:17:23;11.90;;;3.90;;
62056;SDS011;48016;50.284;18.860;2023-03-05T12:20:03;8.90;;;3.60;;
62056;SDS011;48016;50.284;18.860;2023-03-05T12:22:53;6.50;;;2.90;;
62056;SDS011;48016;50.284;18.860;2023-03-05T12:25:32;8.50;;;3.60;;
62056;SDS011;48016;50.284;18.860;2023-03-05T12:27:59;8.40;;;4.00;;
62056;SDS011;48016;50.284;18.860;2023-03-05T12:38:46;6.90;;;3.50;;
62056;SDS011;48016;50.284;18.860;2023-03-05T12:46:33;9.20;;;4.50;;
62056;SDS011;48016;50.284;18.860;2023-03-05T12:51:56;7.10;;;2.70;;
62056;SDS011;48016;50.284;18.860;2023-03-05T12:57:00;6.60;;;3.40;;
62056;SDS011;48016;50.284;18.860;2023-03-05T12:59:42;7.10;;;3.80;;
62056;SDS011;48016;50.284;18.860;2023-03-05T13:02:17;9.20;;;4.10;;
62056;SDS011;48016;50.284;18.860;2023-03-05T13:04:48;6.20;;;3.10;;
62056;SDS011;48016;50.284;18.860;2023-03-05T13:07:18;7.40;;;3.10;;
62056;SDS011;48016;50.284;18.860;2023-03-05T13:09:51;7.00;;;3.60;;
62056;SDS011;48016;50.284;18.860;2023-03-05T13:12:20;7.00;;;3.50;;
62056;SDS011;48016;50.284;18.860;2023-03-05T13:14:58;8.30;;;3.70;;
62056;SDS011;48016;50.284;18.860;2023-03-05T13:17:28;10.90;;;3.80;;
62056;SDS011;48016;50.284;18.860;2023-03-05T13:19:55;7.90;;;3.70;;
62056;SDS011;48016;50.284;18.860;2023-03-05T13:22:24;8.30;;;3.70;;
62056;SDS011;48016;50.284;18.860;2023-03-05T13:27:50;8.70;;;3.70;;
62056;SDS011;48016;50.284;18.860;2023-03-05T13:30:24;7.50;;;3.70;;
62056;SDS011;48016;50.284;18.860;2023-03-05T13:32:53;7.00;;;4.10;;
62056;SDS011;48016;50.284;18.860;2023-03-05T13:35:25;9.50;;;4.70;;
62056;SDS011;48016;50.284;18.860;2023-03-05T13:37:52;9.50;;;4.30;;
62056;SDS011;48016;50.284;18.860;2023-03-05T13:40:20;11.30;;;5.10;;
62056;SDS011;48016;50.284;18.860;2023-03-05T13:42:51;10.00;;;5.00;;
62056;SDS011;48016;50.284;18.860;2023-03-05T13:45:20;10.70;;;5.20;;
62056;SDS011;48016;50.284;18.860;2023-03-05T13:47:55;12.10;;;5.60;;
62056;SDS011;48016;50.284;18.860;2023-03-05T13:50:28;10.50;;;5.50;;
62056;SDS011;48016;50.284;18.860;2023-03-05T13:53:25;8.70;;;4.40;;
62056;SDS011;48016;50.284;18.860;2023-03-05T13:55:55;8.50;;;3.80;;
62056;SDS011;48016;50.284;18.860;2023-03-05T14:03:56;7.00;;;3.10;;
62056;SDS011;48016;50.284;18.860;2023-03-05T14:07:02;9.00;;;3.50;;
62056;SDS011;48016;50.284;18.860;2023-03-05T14:12:05;7.90;;;3.90;;
62056;SDS011;48016;50.284;18.860;2023-03-05T14:14:45;10.30;;;4.00;;
62056;SDS011;48016;50.284;18.860;2023-03-05T14:20:06;9.30;;;4.10;;
62056;SDS011;48016;50.284;18.860;2023-03-05T14:22:40;9.60;;;4.40;;
62056;SDS011;48016;50.284;18.860;2023-03-05T14:25:24;10.30;;;4.40;;
62056;SDS011;48016;50.284;18.860;2023-03-05T14:30:44;8.80;;;4.00;;
62056;SDS011;48016;50.284;18.860;2023-03-05T14:35:51;10.00;;;4.60;;
62056;SDS011;48016;50.284;18.860;2023-03-05T14:38:19;9.40;;;4.30;;
62056;SDS011;48016;50.284;18.860;2023-03-05T14:40:49;11.10;;;5.50;;
62056;SDS011;48016;50.284;18.860;2023-03-05T14:43:16;10.10;;;4.60;;
62056;SDS011;48016;50.284;18.860;2023-03-05T14:45:43;11.30;;;4.60;;
62056;SDS011;48016;50.284;18.860;2023-03-05T14:48:11;7.70;;;4.50;;
62056;SDS011;48016;50.284;18.860;2023-03-05T14:50:42;9.40;;;5.00;;
62056;SDS011;48016;50.284;18.860;2023-03-05T14:53:14;10.50;;;4.70;;
62056;SDS011;48016;50.284;18.860;2023-03-05T14:55:44;10.60;;;4.40;;
62056;SDS011;48016;50.284;18.860;2023-03-05T14:58:16;9.80;;;4.70;;
62056;SDS011;48016;50.284;18.860;2023-03-05T15:00:47;11.30;;;4.90;;
62056;SDS011;48016;50.284;18.860;2023-03-05T15:03:15;10.90;;;4.70;;
62056;SDS011;48016;50.284;18.860;2023-03-05T15:05:43;9.20;;;3.40;;
62056;SDS011;48016;50.284;18.860;2023-03-05T15:08:16;7.90;;;3.40;;
62056;SDS011;48016;50.284;18.860;2023-03-05T15:10:45;8.00;;;3.60;;
62056;SDS011;48016;50.284;18.860;2023-03-05T15:13:13;10.50;;;4.10;;
62056;SDS011;48016;50.284;18.860;2023-03-05T15:15:41;8.70;;;3.90;;
62056;SDS011;48016;50.284;18.860;2023-03-05T15:18:09;7.00;;;3.30;;
62056;SDS011;48016;50.284;18.860;2023-03-05T15:20:38;7.30;;;3.00;;
62056;SDS011;48016;50.284;18.860;2023-03-05T15:23:05;6.90;;;3.70;;
62056;SDS011;48016;50.284;18.860;2023-03-05T15:25:32;7.90;;;3.10;;
62056;SDS011;48016;50.284;18.860;2023-03-05T15:27:59;7.10;;;3.60;;
62056;SDS011;48016;50.284;18.860;2023-03-05T15:30:26;9.30;;;4.00;;
62056;SDS011;48016;50.284;18.860;2023-03-05T15:32:54;9.60;;;3.80;;
62056;SDS011;48016;50.284;18.860;2023-03-05T15:35:23;6.80;;;3.30;;
62056;SDS011;48016;50.284;18.860;2023-03-05T15:37:50;5.70;;;2.60;;
62056;SDS011;48016;50.284;18.860;2023-03-05T15:40:18;5.80;;;3.10;;
62056;SDS011;48016;50.284;18.860;2023-03-05T15:42:46;6.30;;;3.00;;
62056;SDS011;48016;50.284;18.860;2023-03-05T15:45:13;8.30;;;3.60;;
62056;SDS011;48016;50.284;18.860;2023-03-05T15:47:40;6.80;;;3.70;;
62056;SDS011;48016;50.284;18.860;2023-03-05T15:50:07;8.40;;;3.40;;
62056;SDS011;48016;50.284;18.860;2023-03-05T15:52:34;8.40;;;3.70;;
62056;SDS011;48016;50.284;18.860;2023-03-05T15:55:01;6.80;;;4.00;;
62056;SDS011;48016;50.284;18.860;2023-03-05T15:57:28;9.60;;;3.90;;
62056;SDS011;48016;50.284;18.860;2023-03-05T15:59:55;12.20;;;5.10;;
62056;SDS011;48016;50.284;18.860;2023-03-05T16:02:22;10.60;;;5.00;;
62056;SDS011;48016;50.284;18.860;2023-03-05T16:04:49;14.50;;;6.10;;
62056;SDS011;48016;50.284;18.860;2023-03-05T16:07:16;11.00;;;5.20;;
62056;SDS011;48016;50.284;18.860;2023-03-05T16:09:44;9.30;;;4.00;;
62056;SDS011;48016;50.284;18.860;2023-03-05T16:12:15;7.50;;;3.90;;
62056;SDS011;48016;50.284;18.860;2023-03-05T16:14:48;7.90;;;3.20;;
62056;SDS011;48016;50.284;18.860;2023-03-05T16:17:16;6.30;;;3.30;;
62056;SDS011;48016;50.284;18.860;2023-03-05T16:19:45;7.00;;;3.40;;